Time,TemperatureF,DewpointF,PressureIn,WindDirection,WindDirectionDegrees,WindSpeedMPH,WindSpeedGustMPH,Humidity,HourlyPrecipIn,Conditions,Clouds,dailyrainin,SoftwareType,DateUTC
2013-02-21 00:11:00,41.7,35.0,30.03,NW,311,0.0,0.0,77,0.00,,,0.00,weatherlink.com 1.10,2013-02-21 08:11:00,
2013-02-21 00:26:00,41.6,35.0,30.03,NW,311,0.0,1.0,77,0.00,,,0.00,weatherlink.com 1.10,2013-02-21 08:26:00,
2013-02-21 00:41:00,41.2,35.0,30.03,NW,311,0.0,1.0,78,0.00,,,0.00,weatherlink.com 1.10,2013-02-21 08:41:00,
2013-02-21 00:56:00,40.5,35.0,30.03,NW,311,0.0,1.0,80,0.00,,,0.00,weatherlink.com 1.10,2013-02-21 08:56:00,
2013-02-21 01:11:00,39.5,34.0,30.03,NW,311,0.0,1.0,81,0.00,,,0.00,weatherlink.com 1.10,2013-02-21 09:11:00,
2013-02-21 01:26:00,39.5,34.0,30.03,NW,311,0.0,0.0,82,0.00,,,0.00,weatherlink.com 1.10,2013-02-21 09:26:00,
2013-02-21 01:41:00,39.5,34.0,30.03,NW,311,0.0,0.0,82,0.00,,,0.00,weatherlink.com 1.10,2013-02-21 09:41:00,
2013-02-21 01:56:00,39.3,35.0,30.04,NW,311,0.0,0.0,83,0.00,,,0.00,weatherlink.com 1.10,2013-02-21 09:56:00,
2013-02-21 02:11:00,39.1,34.0,30.03,NW,311,0.0,1.0,83,0.00,,,0.00,weatherlink.com 1.10,2013-02-21 10:11:00,
2013-02-21 02:26:00,39.1,34.0,30.03,NW,311,0.0,1.0,82,0.00,,,0.00,weatherlink.com 1.10,2013-02-21 10:26:00,
2013-02-21 02:41:00,39.0,34.0,30.04,SSW,192,0.0,2.0,83,0.00,,,0.00,weatherlink.com 1.10,2013-02-21 10:41:00,
2013-02-21 02:56:00,38.9,34.0,30.04,South,191,0.0,0.0,83,0.00,,,0.00,weatherlink.com 1.10,2013-02-21 10:56:00,
2013-02-21 03:11:00,38.6,34.0,30.04,South,191,0.0,1.0,84,0.00,,,0.00,weatherlink.com 1.10,2013-02-21 11:11:00,
2013-02-21 03:26:00,38.0,34.0,30.04,South,186,0.0,1.0,84,0.00,,,0.00,weatherlink.com 1.10,2013-02-21 11:26:00,
2013-02-21 03:41:00,38.4,34.0,30.03,North,9,1.0,3.0,84,0.00,,,0.00,weatherlink.com 1.10,2013-02-21 11:41:00,
2013-02-21 03:57:00,40.4,35.0,30.04,ENE,65,0.0,2.0,81,0.00,,,0.00,weatherlink.com 1.10,2013-02-21 11:57:00,
2013-02-21 04:12:00,41.1,35.0,30.04,North,353,0.0,2.0,80,0.00,,,0.00,weatherlink.com 1.10,2013-02-21 12:12:00,
2013-02-21 04:27:00,42.4,36.0,30.04,North,2,0.0,3.0,77,0.00,,,0.00,weatherlink.com 1.10,2013-02-21 12:27:00,
2013-02-21 04:42:00,42.7,36.0,30.05,NNW,332,0.0,2.0,76,0.00,,,0.00,weatherlink.com 1.10,2013-02-21 12:42:00,
2013-02-21 04:57:00,41.3,35.0,30.05,NE,37,2.0,3.0,79,0.00,,,0.00,weatherlink.com 1.10,2013-02-21 12:57:00,
2013-02-21 05:12:00,40.9,35.0,30.05,ENE,63,0.0,3.0,80,0.00,,,0.00,weatherlink.com 1.10,2013-02-21 13:12:00,
2013-02-21 05:27:00,40.7,35.0,30.05,North,8,0.0,3.0,81,0.00,,,0.00,weatherlink.com 1.10,2013-02-21 13:27:00,
2013-02-21 05:42:00,41.1,35.0,30.06,North,350,0.0,6.0,80,0.00,,,0.00,weatherlink.com 1.10,2013-02-21 13:42:00,
2013-02-21 05:57:00,42.2,36.0,30.06,NNE,19,0.0,7.0,78,0.00,,,0.00,weatherlink.com 1.10,2013-02-21 13:57:00,
2013-02-21 06:12:00,43.2,36.0,30.06,NNE,26,0.0,10.0,75,0.00,,,0.00,weatherlink.com 1.10,2013-02-21 14:12:00,
2013-02-21 06:27:00,43.0,36.0,30.06,NNE,25,2.0,7.0,75,0.00,,,0.00,weatherlink.com 1.10,2013-02-21 14:27:00,
2013-02-21 06:42:00,42.7,35.0,30.07,ENE,64,0.0,6.0,75,0.00,,,0.00,weatherlink.com 1.10,2013-02-21 14:42:00,
2013-02-21 06:57:00,42.2,35.0,30.07,ESE,114,0.0,6.0,76,0.00,,,0.00,weatherlink.com 1.10,2013-02-21 14:57:00,
2013-02-21 07:12:00,41.6,35.0,30.08,NNE,16,0.0,4.0,77,0.00,,,0.00,weatherlink.com 1.10,2013-02-21 15:12:00,
2013-02-21 07:27:00,41.5,35.0,30.09,North,5,0.0,3.0,77,0.00,,,0.00,weatherlink.com 1.10,2013-02-21 15:27:00,
2013-02-21 07:42:00,41.6,36.0,30.10,North,5,0.0,0.0,79,0.00,,,0.00,weatherlink.com 1.10,2013-02-21 15:42:00,
2013-02-21 07:57:00,42.3,36.0,30.10,North,353,0.0,1.0,77,0.00,,,0.00,weatherlink.com 1.10,2013-02-21 15:57:00,
2013-02-21 08:12:00,44.1,36.0,30.11,North,1,1.0,2.0,74,0.00,,,0.00,weatherlink.com 1.10,2013-02-21 16:12:00,
2013-02-21 08:27:00,46.2,37.0,30.11,NNE,21,0.0,6.0,69,0.00,,,0.00,weatherlink.com 1.10,2013-02-21 16:27:00,
2013-02-21 08:42:00,47.5,37.0,30.12,NNE,20,3.0,6.0,66,0.00,,,0.00,weatherlink.com 1.10,2013-02-21 16:42:00,
2013-02-21 08:57:00,49.0,37.0,30.12,East,94,0.0,4.0,64,0.00,,,0.00,weatherlink.com 1.10,2013-02-21 16:57:00,
2013-02-21 09:12:00,50.0,36.0,30.11,North,9,3.0,5.0,59,0.00,,,0.00,weatherlink.com 1.10,2013-02-21 17:12:00,
2013-02-21 09:27:00,50.2,37.0,30.11,NNE,23,1.0,6.0,61,0.00,,,0.00,weatherlink.com 1.10,2013-02-21 17:27:00,
2013-02-21 09:42:00,51.2,38.0,30.12,NNE,19,3.0,6.0,60,0.00,,,0.00,weatherlink.com 1.10,2013-02-21 17:42:00,
2013-02-21 09:57:00,51.8,37.0,30.12,ESE,104,3.0,6.0,58,0.00,,,0.00,weatherlink.com 1.10,2013-02-21 17:57:00,
2013-02-21 10:12:00,53.7,37.0,30.13,NE,49,0.0,6.0,53,0.00,,,0.00,weatherlink.com 1.10,2013-02-21 18:12:00,
2013-02-21 10:27:00,54.8,36.0,30.13,NNE,19,0.0,4.0,50,0.00,,,0.00,weatherlink.com 1.10,2013-02-21 18:27:00,
2013-02-21 10:42:00,56.1,37.0,30.14,NNE,32,1.0,3.0,49,0.00,,,0.00,weatherlink.com 1.10,2013-02-21 18:42:00,
2013-02-21 10:58:00,57.0,35.0,30.13,East,94,1.0,6.0,44,0.00,,,0.00,weatherlink.com 1.10,2013-02-21 18:58:00,
2013-02-21 11:13:00,57.0,33.0,30.12,North,6,2.0,10.0,40,0.00,,,0.00,weatherlink.com 1.10,2013-02-21 19:13:00,
2013-02-21 11:28:00,58.4,35.0,30.12,ENE,57,2.0,5.0,41,0.00,,,0.00,weatherlink.com 1.10,2013-02-21 19:28:00,
2013-02-21 11:43:00,59.4,33.0,30.12,NNE,13,0.0,5.0,37,0.00,,,0.00,weatherlink.com 1.10,2013-02-21 19:43:00,
2013-02-21 11:58:00,59.0,33.0,30.11,South,175,1.0,7.0,38,0.00,,,0.00,weatherlink.com 1.10,2013-02-21 19:58:00,
2013-02-21 12:13:00,58.9,34.0,30.11,NNW,337,1.0,8.0,39,0.00,,,0.00,weatherlink.com 1.10,2013-02-21 20:13:00,
2013-02-21 12:28:00,59.6,35.0,30.10,North,357,1.0,4.0,40,0.00,,,0.00,weatherlink.com 1.10,2013-02-21 20:28:00,
2013-02-21 12:43:00,60.5,33.0,30.10,NE,51,3.0,8.0,35,0.00,,,0.00,weatherlink.com 1.10,2013-02-21 20:43:00,
2013-02-21 12:58:00,61.8,34.0,30.09,SSE,163,3.0,6.0,35,0.00,,,0.00,weatherlink.com 1.10,2013-02-21 20:58:00,
2013-02-21 13:13:00,61.1,31.0,30.09,NNW,344,1.0,5.0,32,0.00,,,0.00,weatherlink.com 1.10,2013-02-21 21:13:00,
2013-02-21 13:28:00,61.2,37.0,30.08,SSW,203,2.0,7.0,40,0.00,,,0.00,weatherlink.com 1.10,2013-02-21 21:28:00,
2013-02-21 13:43:00,61.2,40.0,30.08,West,267,3.0,8.0,45,0.00,,,0.00,weatherlink.com 1.10,2013-02-21 21:43:00,
2013-02-21 13:58:00,60.7,37.0,30.07,WNW,285,4.0,9.0,42,0.00,,,0.00,weatherlink.com 1.10,2013-02-21 21:58:00,
2013-02-21 14:13:00,60.2,36.0,30.07,WNW,293,0.0,9.0,41,0.00,,,0.00,weatherlink.com 1.10,2013-02-21 22:13:00,
2013-02-21 14:28:00,61.0,36.0,30.07,WSW,255,4.0,8.0,40,0.00,,,0.00,weatherlink.com 1.10,2013-02-21 22:28:00,
2013-02-21 14:43:00,61.1,35.0,30.07,WNW,298,3.0,8.0,38,0.00,,,0.00,weatherlink.com 1.10,2013-02-21 22:43:00,
2013-02-21 14:58:00,61.2,35.0,30.06,West,261,5.0,9.0,38,0.00,,,0.00,weatherlink.com 1.10,2013-02-21 22:58:00,
2013-02-21 15:13:00,61.3,37.0,30.06,WSW,239,4.0,7.0,40,0.00,,,0.00,weatherlink.com 1.10,2013-02-21 23:13:00,
2013-02-21 15:28:00,60.6,38.0,30.05,West,259,0.0,8.0,44,0.00,,,0.00,weatherlink.com 1.10,2013-02-21 23:28:00,
2013-02-21 15:43:00,60.4,39.0,30.05,WNW,293,3.0,7.0,45,0.00,,,0.00,weatherlink.com 1.10,2013-02-21 23:43:00,
2013-02-21 15:58:00,60.0,38.0,30.06,West,275,2.0,8.0,45,0.00,,,0.00,weatherlink.com 1.10,2013-02-21 23:58:00,
2013-02-21 16:13:00,59.6,38.0,30.05,West,267,2.0,10.0,45,0.00,,,0.00,weatherlink.com 1.10,2013-02-22 00:13:00,
2013-02-21 16:28:00,59.1,39.0,30.06,WNW,300,6.0,9.0,47,0.00,,,0.00,weatherlink.com 1.10,2013-02-22 00:28:00,
2013-02-21 16:43:00,58.1,39.0,30.06,WSW,257,0.0,6.0,49,0.00,,,0.00,weatherlink.com 1.10,2013-02-22 00:43:00,
2013-02-21 16:58:00,58.5,39.0,30.06,WSW,257,2.0,6.0,49,0.00,,,0.00,weatherlink.com 1.10,2013-02-22 00:58:00,
2013-02-21 17:28:00,57.8,40.0,30.07,NW,307,0.0,3.0,51,0.00,,,0.00,weatherlink.com 1.10,2013-02-22 01:28:00,
2013-02-21 17:43:00,56.2,40.0,30.07,West,274,0.0,2.0,54,0.00,,,0.00,weatherlink.com 1.10,2013-02-22 01:43:00,
2013-02-21 17:58:00,54.8,39.0,30.07,West,274,0.0,1.0,56,0.00,,,0.00,weatherlink.com 1.10,2013-02-22 01:58:00,
2013-02-21 18:13:00,53.9,39.0,30.07,West,274,0.0,1.0,58,0.00,,,0.00,weatherlink.com 1.10,2013-02-22 02:13:00,
2013-02-21 18:28:00,53.0,39.0,30.08,West,274,0.0,0.0,60,0.00,,,0.00,weatherlink.com 1.10,2013-02-22 02:28:00,
2013-02-21 18:43:00,52.8,39.0,30.09,NW,316,0.0,0.0,61,0.00,,,0.00,weatherlink.com 1.10,2013-02-22 02:43:00,
2013-02-21 18:58:00,51.9,40.0,30.10,NW,316,0.0,0.0,64,0.00,,,0.00,weatherlink.com 1.10,2013-02-22 02:58:00,
2013-02-21 19:13:00,50.4,39.0,30.10,NW,316,0.0,0.0,66,0.00,,,0.00,weatherlink.com 1.10,2013-02-22 03:13:00,
2013-02-21 19:28:00,49.0,40.0,30.10,SSE,157,0.0,0.0,70,0.00,,,0.00,weatherlink.com 1.10,2013-02-22 03:28:00,
2013-02-21 19:43:00,47.9,40.0,30.11,SSE,157,0.0,0.0,73,0.00,,,0.00,weatherlink.com 1.10,2013-02-22 03:43:00,
2013-02-21 19:58:00,47.5,40.0,30.11,WSW,248,0.0,1.0,75,0.00,,,0.00,weatherlink.com 1.10,2013-02-22 03:58:00,
2013-02-21 20:13:00,47.1,40.0,30.10,WSW,248,0.0,1.0,76,0.00,,,0.00,weatherlink.com 1.10,2013-02-22 04:13:00,
2013-02-21 20:28:00,47.2,40.0,30.11,NW,311,1.0,3.0,75,0.00,,,0.00,weatherlink.com 1.10,2013-02-22 04:28:00,
2013-02-21 20:43:00,46.5,39.0,30.11,NW,312,0.0,2.0,76,0.00,,,0.00,weatherlink.com 1.10,2013-02-22 04:43:00,
2013-02-21 20:58:00,46.7,39.0,30.11,NW,312,0.0,0.0,74,0.00,,,0.00,weatherlink.com 1.10,2013-02-22 04:58:00,
2013-02-21 21:13:00,48.4,39.0,30.11,NW,312,0.0,0.0,69,0.00,,,0.00,weatherlink.com 1.10,2013-02-22 05:13:00,
2013-02-21 21:28:00,46.7,39.0,30.12,NW,312,0.0,0.0,74,0.00,,,0.00,weatherlink.com 1.10,2013-02-22 05:28:00,
2013-02-21 21:43:00,46.7,39.0,30.12,NW,312,0.0,0.0,74,0.00,,,0.00,weatherlink.com 1.10,2013-02-22 05:43:00,
2013-02-21 21:58:00,45.4,39.0,30.13,NW,312,0.0,0.0,78,0.00,,,0.00,weatherlink.com 1.10,2013-02-22 05:58:00,
2013-02-21 22:13:00,44.6,38.0,30.13,NW,312,0.0,0.0,79,0.00,,,0.00,weatherlink.com 1.10,2013-02-22 06:13:00,
2013-02-21 22:28:00,44.1,39.0,30.13,NW,306,0.0,3.0,81,0.00,,,0.00,weatherlink.com 1.10,2013-02-22 06:28:00,
2013-02-21 22:43:00,43.2,38.0,30.13,NW,309,0.0,3.0,83,0.00,,,0.00,weatherlink.com 1.10,2013-02-22 06:43:00,
2013-02-21 22:58:00,42.9,38.0,30.13,NW,309,0.0,0.0,83,0.00,,,0.00,weatherlink.com 1.10,2013-02-22 06:58:00,
2013-02-21 23:13:00,43.2,39.0,30.14,NW,309,0.0,0.0,84,0.00,,,0.00,weatherlink.com 1.10,2013-02-22 07:13:00,
2013-02-21 23:28:00,43.8,39.0,30.14,NW,317,1.0,3.0,82,0.00,,,0.00,weatherlink.com 1.10,2013-02-22 07:28:00,
2013-02-21 23:43:00,42.1,38.0,30.14,NW,315,0.0,3.0,85,0.00,,,0.00,weatherlink.com 1.10,2013-02-22 07:43:00,
2013-02-21 23:58:00,42.1,38.0,30.14,NW,315,0.0,2.0,85,0.00,,,0.00,weatherlink.com 1.10,2013-02-22 07:58:00,